Time;durP1;ratioP1;P1;durP2;ratioP2;P2;SDS_P1;SDS_P2;PMS_P1;PMS_P2;Temp;Humidity;BMP_temperature;BMP_pressure;BME280_temperature;BME280_humidity;BME280_pressure;Samples;Min_cycle;Max_cycle;Signal;HPM_P1;HPM_P2
2024/04/14 00:00:56;;;;;;;0.25;0.10;;;15.10;88.70;;;;;;5424703;26;20179;-71
2024/04/14 00:03:22;;;;;;;0.10;0.10;;;15.10;88.30;;;;;;5425195;26;20200;-71
2024/04/14 00:05:48;;;;;;;0.00;0.00;;;15.00;88.40;;;;;;5432580;26;19991;-71
2024/04/14 00:08:14;;;;;;;0.10;0.10;;;15.30;88.70;;;;;;5451487;26;20002;-71
2024/04/14 00:10:42;;;;;;;0.00;0.00;;;15.10;88.60;;;;;;5424379;26;19984;-71
2024/04/14 00:13:07;;;;;;;0.45;0.10;;;15.20;88.50;;;;;;5431628;26;19991;-71
2024/04/14 00:15:33;;;;;;;0.13;0.10;;;15.20;80.80;;;;;;5424595;26;20052;-71
2024/04/14 00:18:00;;;;;;;0.10;0.10;;;;;;;;;;5424617;26;20163;-70
2024/04/14 00:20:26;;;;;;;0.10;0.10;;;15.50;88.40;;;;;;5424536;26;20250;-71
2024/04/14 00:22:52;;;;;;;0.00;0.00;;;;;;;;;;5424290;26;19991;-71
2024/04/14 00:25:18;;;;;;;0.05;0.03;;;15.30;88.80;;;;;;5424443;26;20039;-71
2024/04/14 00:27:44;;;;;;;0.08;0.08;;;15.50;88.60;;;;;;5424352;26;20248;-71
2024/04/14 00:30:10;;;;;;;0.00;0.00;;;15.20;88.60;;;;;;5430905;26;20104;-71
2024/04/14 00:32:37;;;;;;;0.10;0.10;;;15.30;88.80;;;;;;5424114;26;20023;-71
2024/04/14 00:35:03;;;;;;;0.17;0.15;;;15.10;89.10;;;;;;5424448;26;20038;-71
2024/04/14 00:37:29;;;;;;;0.10;0.10;;;15.20;89.70;;;;;;5424292;26;19999;-71
2024/04/14 00:39:54;;;;;;;0.20;0.20;;;15.00;89.40;;;;;;5422619;26;19993;-71
2024/04/14 00:42:20;;;;;;;0.00;0.00;;;;;;;;;;5435598;26;20036;-70
2024/04/14 00:44:47;;;;;;;0.10;0.10;;;;;;;;;;5423920;26;19995;-71
2024/04/14 00:47:13;;;;;;;0.10;0.10;;;14.90;90.00;;;;;;5431253;26;20033;-71
2024/04/14 00:49:41;;;;;;;0.20;0.20;;;14.60;89.70;;;;;;5424022;26;19987;-71
2024/04/14 00:52:10;;;;;;;0.87;0.10;;;14.70;90.40;;;;;;5424298;26;19987;-70
2024/04/14 00:54:36;;;;;;;0.70;0.20;;;14.30;90.40;;;;;;5368250;26;20008;-72
2024/04/14 00:57:03;;;;;;;0.00;0.00;;;14.50;90.80;;;;;;5431180;26;20016;-72
2024/04/14 00:59:30;;;;;;;0.55;0.30;;;14.20;91.20;;;;;;5423858;26;20192;-71
2024/04/14 01:01:56;;;;;;;0.00;0.00;;;14.20;92.20;;;;;;5427814;26;20065;-71
2024/04/14 01:04:22;;;;;;;0.10;0.10;;;14.30;75.30;;;;;;5430903;26;19991;-71
2024/04/14 01:06:48;;;;;;;0.10;0.10;;;14.20;75.60;;;;;;5423948;26;20000;-71
2024/04/14 01:09:16;;;;;;;0.10;0.00;;;14.10;76.10;;;;;;5417327;26;20188;-71
2024/04/14 01:11:42;;;;;;;0.10;0.10;;;14.10;93.10;;;;;;5423780;26;19995;-72
2024/04/14 01:14:08;;;;;;;0.00;0.00;;;13.90;92.70;;;;;;5423788;26;20090;-71
2024/04/14 01:16:36;;;;;;;0.03;0.03;;;13.90;92.40;;;;;;5423792;26;19995;-71
2024/04/14 01:19:05;;;;;;;0.10;0.10;;;14.30;92.40;;;;;;5423769;26;20213;-71
2024/04/14 01:21:32;;;;;;;0.10;0.10;;;13.90;92.20;;;;;;5430590;26;20019;-72
2024/04/14 01:23:57;;;;;;;0.10;0.10;;;14.20;92.10;;;;;;5423511;26;20193;-72
2024/04/14 01:26:23;;;;;;;0.35;0.10;;;14.10;92.00;;;;;;5423904;26;19992;-72
2024/04/14 01:28:49;;;;;;;0.00;0.00;;;14.20;91.80;;;;;;5423248;26;20200;-72
2024/04/14 01:31:14;;;;;;;0.10;0.10;;;14.10;91.80;;;;;;5423763;26;20011;-72
2024/04/14 01:33:40;;;;;;;0.20;0.20;;;14.20;91.70;;;;;;5423413;26;20096;-71
2024/04/14 01:36:07;;;;;;;0.13;0.13;;;14.10;91.70;;;;;;5423822;26;20052;-72
2024/04/14 01:38:33;;;;;;;0.10;0.10;;;14.10;91.80;;;;;;5432891;26;20133;-72
2024/04/14 01:41:01;;;;;;;0.08;0.05;;;14.00;91.70;;;;;;5425782;26;19992;-71
2024/04/14 01:43:27;;;;;;;0.17;0.17;;;14.20;91.70;;;;;;5431272;26;19991;-72
2024/04/14 01:45:53;;;;;;;0.17;0.17;;;14.10;91.70;;;;;;5428592;26;20041;-72
2024/04/14 01:48:19;;;;;;;0.10;0.10;;;14.10;91.50;;;;;;5426837;26;19991;-72
2024/04/14 01:50:45;;;;;;;0.00;0.00;;;;;;;;;;5426455;26;19988;-71
2024/04/14 01:53:11;;;;;;;0.10;0.10;;;14.10;86.90;;;;;;5426720;26;20303;-71
2024/04/14 01:55:37;;;;;;;0.00;0.00;;;14.30;84.80;;;;;;5433607;26;19991;-72
2024/04/14 01:58:02;;;;;;;0.00;0.00;;;14.30;91.60;;;;;;5426651;26;19991;-70
2024/04/14 02:00:28;;;;;;;0.38;0.13;;;14.30;91.80;;;;;;5434635;26;19991;-70
2024/04/14 02:02:55;;;;;;;0.28;0.25;;;;;;;;;;5426479;26;19988;-70
2024/04/14 02:05:22;;;;;;;0.00;0.00;;;14.10;90.60;;;;;;5434430;26;20007;-69
2024/04/14 02:07:48;;;;;;;0.40;0.20;;;;;;;;;;5426278;26;20009;-71
2024/04/14 02:10:14;;;;;;;0.25;0.17;;;14.00;91.90;;;;;;5426431;26;19999;-71
2024/04/14 02:12:40;;;;;;;0.05;0.05;;;;;;;;;;5433400;26;20053;-71
2024/04/14 02:15:05;;;;;;;0.10;0.10;;;14.20;90.60;;;;;;5431031;26;20103;-71
2024/04/14 02:17:31;;;;;;;0.00;0.00;;;14.00;92.10;;;;;;5428366;26;20003;-71
2024/04/14 02:19:57;;;;;;;0.00;0.00;;;14.10;92.20;;;;;;5434629;26;20359;-71
2024/04/14 02:22:23;;;;;;;0.00;0.00;;;;;;;;;;5455736;26;20499;-71
2024/04/14 02:24:49;;;;;;;0.40;0.40;;;;;;;;;;5425144;26;19994;-71
2024/04/14 02:27:15;;;;;;;0.20;0.20;;;;;;;;;;5426232;26;20201;-71
2024/04/14 02:29:41;;;;;;;0.10;0.10;;;13.90;80.30;;;;;;5433167;26;19999;-71
2024/04/14 02:32:07;;;;;;;0.20;0.20;;;;;;;;;;5426271;26;20085;-71
2024/04/14 02:34:34;;;;;;;0.10;0.10;;;13.90;78.50;;;;;;5426082;26;19983;-69
2024/04/14 02:37:00;;;;;;;0.10;0.10;;;13.90;92.90;;;;;;5425970;26;19995;-69
2024/04/14 02:39:25;;;;;;;0.45;0.43;;;13.90;81.70;;;;;;5425816;26;20041;-69
2024/04/14 02:41:52;;;;;;;1.85;0.32;;;;;;;;;;5437149;26;20173;-68
2024/04/14 02:44:18;;;;;;;0.20;0.20;;;13.80;93.00;;;;;;5420349;26;19989;-69
2024/04/14 02:46:44;;;;;;;0.10;0.10;;;13.80;79.00;;;;;;5437135;26;20160;-69
2024/04/14 02:49:09;;;;;;;0.32;0.32;;;13.80;86.80;;;;;;5426139;26;20052;-69
2024/04/14 02:51:35;;;;;;;0.28;0.28;;;13.80;93.60;;;;;;5424564;26;19991;-70
2024/04/14 02:54:01;;;;;;;0.35;0.10;;;13.50;86.90;;;;;;5411040;26;19984;-70
2024/04/14 02:56:27;;;;;;;0.00;0.00;;;13.60;93.90;;;;;;5425812;26;20092;-69
2024/04/14 02:58:53;;;;;;;0.00;0.00;;;13.20;94.20;;;;;;5425525;26;20216;-70
2024/04/14 03:01:19;;;;;;;0.10;0.10;;;;;;;;;;5432938;26;20283;-70
2024/04/14 03:03:45;;;;;;;0.20;0.20;;;13.30;91.30;;;;;;5439716;26;20008;-70
2024/04/14 03:06:11;;;;;;;2.78;0.32;;;13.10;93.00;;;;;;5427179;26;20057;-70
2024/04/14 03:08:37;;;;;;;1.35;0.35;;;13.10;92.90;;;;;;5425515;26;20204;-71
2024/04/14 03:11:03;;;;;;;0.00;0.00;;;13.20;94.50;;;;;;5431043;26;20041;-70
2024/04/14 03:13:29;;;;;;;0.03;0.03;;;;;;;;;;5425504;26;20172;-71
2024/04/14 03:15:55;;;;;;;0.00;0.00;;;13.20;82.50;;;;;;5425381;26;20058;-71
2024/04/14 03:18:21;;;;;;;0.10;0.10;;;13.40;94.40;;;;;;5425905;26;20046;-71
2024/04/14 03:21:05;;;;;;;0.15;0.10;;;13.30;94.20;;;;;;5432280;26;19999;-73
2024/04/14 03:23:31;;;;;;;0.10;0.10;;;13.30;84.20;;;;;;5424812;26;20002;-72
2024/04/14 03:25:57;;;;;;;0.00;0.00;;;13.30;94.20;;;;;;5425258;26;20004;-71
2024/04/14 03:28:24;;;;;;;0.10;0.10;;;13.40;90.00;;;;;;5425638;26;20006;-71
2024/04/14 03:30:51;;;;;;;0.52;0.20;;;13.50;81.80;;;;;;5425269;26;20243;-71
2024/04/14 03:33:17;;;;;;;0.00;0.00;;;;;;;;;;5404694;26;19997;-71
2024/04/14 03:35:43;;;;;;;0.00;0.00;;;13.50;94.20;;;;;;5370457;26;20032;-71
2024/04/14 03:38:09;;;;;;;0.05;0.05;;;;;;;;;;5432863;26;20005;-73
2024/04/14 03:40:35;;;;;;;0.40;0.38;;;;;;;;;;5424542;26;19995;-73
2024/04/14 03:43:00;;;;;;;0.32;0.32;;;13.20;90.40;;;;;;5432572;26;20006;-73
2024/04/14 03:45:27;;;;;;;0.20;0.20;;;;;;;;;;5424195;26;19999;-73
2024/04/14 03:47:53;;;;;;;0.10;0.10;;;;;;;;;;5424083;26;20027;-70
2024/04/14 03:50:19;;;;;;;0.10;0.10;;;13.20;83.90;;;;;;5424414;26;19991;-71
2024/04/14 03:52:45;;;;;;;0.10;0.10;;;;;;;;;;5424795;26;20208;-72
2024/04/14 03:55:11;;;;;;;0.40;0.20;;;13.30;90.50;;;;;;5444837;26;19995;-71
2024/04/14 03:57:38;;;;;;;0.22;0.22;;;13.20;95.30;;;;;;5445042;26;19991;-71
2024/04/14 04:00:05;;;;;;;0.00;0.00;;;12.90;95.60;;;;;;5424901;26;19995;-72
2024/04/14 04:02:31;;;;;;;0.00;0.00;;;12.90;90.70;;;;;;5425129;26;20020;-71
2024/04/14 04:04:56;;;;;;;0.03;0.03;;;13.10;92.60;;;;;;5423935;26;20245;-71
2024/04/14 04:07:22;;;;;;;0.55;0.40;;;13.00;95.60;;;;;;5425024;26;19988;-71
2024/04/14 04:09:50;;;;;;;0.10;0.10;;;13.00;93.70;;;;;;5434308;26;20032;-71
2024/04/14 04:12:16;;;;;;;0.10;0.10;;;;;;;;;;5438062;26;20019;-72
2024/04/14 04:14:42;;;;;;;0.38;0.13;;;;;;;;;;5424665;26;19995;-73
2024/04/14 04:17:08;;;;;;;0.03;0.03;;;;;;;;;;5424935;26;19999;-73
2024/04/14 04:19:34;;;;;;;0.00;0.00;;;13.20;94.70;;;;;;5424700;26;19987;-73
2024/04/14 04:22:02;;;;;;;0.28;0.28;;;13.30;94.50;;;;;;5424618;26;20002;-73
2024/04/14 04:24:28;;;;;;;0.03;0.03;;;;;;;;;;5424799;26;20216;-70
2024/04/14 04:26:53;;;;;;;0.20;0.20;;;13.30;93.10;;;;;;5429984;26;20087;-70
2024/04/14 04:29:19;;;;;;;0.10;0.10;;;;;;;;;;5443922;26;20196;-70
2024/04/14 04:31:45;;;;;;;0.00;0.00;;;;;;;;;;5424377;26;19995;-70
2024/04/14 04:34:12;;;;;;;0.08;0.08;;;13.60;83.00;;;;;;5423840;26;19991;-70
2024/04/14 04:36:38;;;;;;;2.45;0.32;;;;;;;;;;5424179;26;20280;-70
2024/04/14 04:39:04;;;;;;;0.22;0.20;;;13.90;94.30;;;;;;5424071;26;20214;-70
2024/04/14 04:41:31;;;;;;;1.85;0.35;;;;;;;;;;5424261;26;20003;-71
2024/04/14 04:43:57;;;;;;;0.10;0.10;;;13.90;83.20;;;;;;5432379;26;19988;-70
2024/04/14 04:46:24;;;;;;;0.47;0.47;;;13.80;95.00;;;;;;5431465;26;20028;-70
2024/04/14 04:48:51;;;;;;;0.30;0.20;;;14.00;95.20;;;;;;5423890;26;19991;-71
2024/04/14 04:51:18;;;;;;;0.30;0.30;;;14.00;95.30;;;;;;5403632;26;20026;-71
2024/04/14 04:53:44;;;;;;;0.10;0.10;;;14.10;95.50;;;;;;5428527;26;19987;-72
2024/04/14 04:56:09;;;;;;;0.15;0.15;;;14.30;95.50;;;;;;5424299;26;19995;-73
2024/04/14 04:58:35;;;;;;;0.50;0.50;;;14.10;96.30;;;;;;5418554;26;19991;-71
2024/04/14 05:01:01;;;;;;;0.25;0.20;;;14.20;84.30;;;;;;5431125;26;19992;-70
2024/04/14 05:03:26;;;;;;;0.00;0.00;;;14.20;96.00;;;;;;5431601;26;19992;-71
2024/04/14 05:05:59;;;;;;;0.20;0.13;;;14.40;95.10;;;;;;5423885;26;20252;-71
2024/04/14 05:08:26;;;;;;;0.20;0.20;;;14.50;95.90;;;;;;5423995;26;20053;-71
2024/04/14 05:10:56;;;;;;;0.03;0.00;;;14.40;83.70;;;;;;5373339;26;19995;-71
2024/04/14 05:13:23;;;;;;;0.20;0.20;;;14.60;95.40;;;;;;5433759;26;20145;-69
2024/04/14 05:15:49;;;;;;;0.32;0.25;;;14.60;94.90;;;;;;5423266;26;20000;-69
2024/04/14 05:18:16;;;;;;;0.15;0.10;;;14.70;95.00;;;;;;5422978;26;20164;-69
2024/04/14 05:20:42;;;;;;;0.10;0.10;;;14.60;95.00;;;;;;5447652;26;19990;-71
2024/04/14 05:23:09;;;;;;;0.20;0.20;;;14.70;83.30;;;;;;5449813;26;20200;-73
2024/04/14 05:25:41;;;;;;;0.10;0.10;;;14.70;83.30;;;;;;5423616;26;19999;-72
2024/04/14 05:28:08;;;;;;;0.10;0.10;;;14.80;95.50;;;;;;5427490;26;20092;-73
2024/04/14 05:30:39;;;;;;;0.00;0.00;;;14.80;84.10;;;;;;5449008;26;19994;-70
2024/04/14 05:33:05;;;;;;;0.10;0.10;;;14.80;83.70;;;;;;5423537;26;20007;-70
2024/04/14 05:35:33;;;;;;;0.00;0.00;;;14.80;83.60;;;;;;5429567;26;20002;-70
2024/04/14 05:37:59;;;;;;;0.10;0.10;;;14.80;95.00;;;;;;5424166;26;20053;-70
2024/04/14 05:40:25;;;;;;;0.38;0.30;;;14.80;95.20;;;;;;5423067;26;20048;-70
2024/04/14 05:42:51;;;;;;;0.60;0.60;;;15.10;94.80;;;;;;5431557;26;20202;-71
2024/04/14 05:45:23;;;;;;;0.00;0.00;;;15.00;83.40;;;;;;5423316;26;19991;-70
2024/04/14 05:47:49;;;;;;;0.82;0.40;;;15.20;94.50;;;;;;5422199;26;19996;-70
2024/04/14 05:50:16;;;;;;;0.00;0.00;;;;;;;;;;5423432;26;19991;-70
2024/04/14 05:52:42;;;;;;;0.13;0.10;;;;;;;;;;5430656;26;20160;-70
2024/04/14 05:55:07;;;;;;;0.10;0.10;;;15.20;94.80;;;;;;5423318;26;20013;-70
2024/04/14 05:57:34;;;;;;;0.00;0.00;;;15.30;94.60;;;;;;5422803;26;19988;-70
2024/04/14 05:59:59;;;;;;;0.28;0.28;;;15.40;94.70;;;;;;5422783;26;19998;-70
2024/04/14 06:02:25;;;;;;;0.30;0.20;;;;;;;;;;5422959;26;20088;-71
2024/04/14 06:04:51;;;;;;;0.30;0.30;;;15.60;94.60;;;;;;5422608;26;20308;-70
2024/04/14 06:07:17;;;;;;;0.20;0.20;;;15.60;94.60;;;;;;5416913;26;19987;-70
2024/04/14 06:09:42;;;;;;;0.05;0.05;;;15.80;94.20;;;;;;5434766;26;20061;-71
2024/04/14 06:12:08;;;;;;;0.30;0.22;;;15.90;94.00;;;;;;5422712;26;20369;-71
2024/04/14 06:14:34;;;;;;;0.85;0.63;;;16.00;93.90;;;;;;5422347;26;20019;-69
2024/04/14 06:17:00;;;;;;;0.30;0.30;;;16.20;93.80;;;;;;5438230;26;19998;-70
2024/04/14 06:19:25;;;;;;;2.08;0.22;;;16.40;93.90;;;;;;5431172;26;20003;-68
2024/04/14 06:21:51;;;;;;;0.28;0.28;;;16.10;82.10;;;;;;5422417;26;20189;-68
2024/04/14 06:24:17;;;;;;;0.05;0.05;;;16.30;81.80;;;;;;5422444;26;20309;-70
2024/04/14 06:26:42;;;;;;;0.28;0.28;;;16.50;81.30;;;;;;5429837;26;19998;-70
2024/04/14 06:29:08;;;;;;;0.30;0.25;;;16.70;92.70;;;;;;5416684;26;20002;-68
2024/04/14 06:31:34;;;;;;;0.10;0.10;;;16.60;92.10;;;;;;5433407;26;19988;-69
2024/04/14 06:33:59;;;;;;;0.00;0.00;;;17.00;92.20;;;;;;5426055;26;19998;-69
2024/04/14 06:36:25;;;;;;;0.38;0.20;;;;;;;;;;5426280;26;19984;-68
2024/04/14 06:38:53;;;;;;;0.10;0.10;;;17.40;92.30;;;;;;5425690;26;19991;-69
2024/04/14 06:41:19;;;;;;;0.20;0.20;;;17.10;91.90;;;;;;5426121;26;20316;-69
2024/04/14 06:43:44;;;;;;;0.20;0.20;;;17.20;79.00;;;;;;5441992;26;20263;-69
2024/04/14 06:46:10;;;;;;;0.35;0.35;;;17.90;93.20;;;;;;5426318;26;19991;-69
2024/04/14 06:48:36;;;;;;;0.00;0.00;;;17.40;90.80;;;;;;5425992;26;20041;-69
2024/04/14 06:51:02;;;;;;;0.20;0.20;;;;;;;;;;5425940;26;19998;-69
2024/04/14 06:53:28;;;;;;;0.40;0.40;;;;;;;;;;5425840;26;20006;-69
2024/04/14 06:55:55;;;;;;;0.57;0.30;;;18.10;90.60;;;;;;5422502;26;19991;-70
2024/04/14 06:58:21;;;;;;;0.15;0.15;;;18.10;77.10;;;;;;5414656;26;20016;-72
2024/04/14 07:00:46;;;;;;;0.50;0.28;;;18.20;76.40;;;;;;5432256;26;20313;-70
2024/04/14 07:03:14;;;;;;;0.25;0.25;;;18.40;90.20;;;;;;5431390;26;19991;-70
2024/04/14 07:05:39;;;;;;;2.17;0.70;;;18.40;76.00;;;;;;5409688;26;20059;-70
2024/04/14 07:08:08;;;;;;;3.28;0.30;;;;;;;;;;5425738;26;20003;-70
2024/04/14 07:10:35;;;;;;;0.80;0.17;;;18.80;74.20;;;;;;5425647;26;19992;-70
2024/04/14 07:13:01;;;;;;;0.30;0.25;;;19.30;89.30;;;;;;5423993;26;19994;-70
2024/04/14 07:15:27;;;;;;;0.17;0.17;;;19.30;72.80;;;;;;5425698;26;20096;-70
2024/04/14 07:17:53;;;;;;;0.55;0.47;;;19.50;72.70;;;;;;5432923;26;19994;-70
2024/04/14 07:20:20;;;;;;;0.28;0.28;;;19.70;72.00;;;;;;5425445;26;20024;-70
2024/04/14 07:22:52;;;;;;;0.13;0.13;;;19.90;71.50;;;;;;5425524;26;20002;-71
2024/04/14 07:25:18;;;;;;;0.30;0.30;;;20.10;85.60;;;;;;5425680;26;20189;-70
2024/04/14 07:27:50;;;;;;;0.00;0.00;;;20.30;84.30;;;;;;5425439;26;19995;-68
2024/04/14 07:30:18;;;;;;;0.57;0.30;;;20.80;84.20;;;;;;5419226;26;20005;-69
2024/04/14 07:32:44;;;;;;;0.30;0.30;;;20.40;70.00;;;;;;5429735;26;20006;-70
2024/04/14 07:35:09;;;;;;;0.10;0.10;;;20.60;69.60;;;;;;5433187;26;20200;-70
2024/04/14 07:37:35;;;;;;;0.30;0.30;;;21.00;82.80;;;;;;5423734;26;19990;-71
2024/04/14 07:40:00;;;;;;;0.35;0.28;;;21.00;68.60;;;;;;5428539;26;20055;-69
2024/04/14 07:42:26;;;;;;;0.10;0.10;;;21.30;68.20;;;;;;5435178;26;19991;-69
2024/04/14 07:44:52;;;;;;;0.35;0.35;;;21.50;67.60;;;;;;5426704;26;20293;-70
2024/04/14 07:47:17;;;;;;;0.75;0.45;;;21.60;67.30;;;;;;5404615;26;19999;-70
2024/04/14 07:49:43;;;;;;;0.38;0.38;;;21.60;80.30;;;;;;5430030;26;19987;-70
2024/04/14 07:52:09;;;;;;;1.83;1.13;;;21.90;80.20;;;;;;5432889;26;20305;-70
2024/04/14 07:54:34;;;;;;;0.30;0.30;;;21.90;66.80;;;;;;5425152;26;19987;-70
2024/04/14 07:57:01;;;;;;;0.20;0.20;;;22.00;66.50;;;;;;5425079;26;19984;-70
2024/04/14 07:59:27;;;;;;;0.15;0.15;;;22.20;66.50;;;;;;5421371;26;19987;-70
2024/04/14 08:01:53;;;;;;;0.10;0.10;;;22.40;80.00;;;;;;5426134;26;20343;-70
2024/04/14 08:04:19;;;;;;;0.30;0.25;;;22.40;65.50;;;;;;5425341;26;19999;-69
2024/04/14 08:06:44;;;;;;;1.23;0.47;;;22.50;65.30;;;;;;5423725;26;20041;-70
2024/04/14 08:09:10;;;;;;;0.57;0.47;;;22.50;79.40;;;;;;5432908;26;20000;-70
2024/04/14 08:11:35;;;;;;;0.10;0.10;;;22.60;64.90;;;;;;5425090;26;19991;-70
2024/04/14 08:14:01;;;;;;;0.40;0.40;;;22.70;63.70;;;;;;5423394;26;19999;-70
2024/04/14 08:16:28;;;;;;;0.20;0.20;;;22.70;64.60;;;;;;5425280;26;20003;-70
2024/04/14 08:18:53;;;;;;;0.20;0.20;;;22.80;64.40;;;;;;5424939;26;19991;-69
2024/04/14 08:21:21;;;;;;;0.38;0.38;;;22.80;64.20;;;;;;5445966;26;19990;-70
2024/04/14 08:23:46;;;;;;;0.55;0.55;;;23.00;64.10;;;;;;5444562;26;20042;-70
2024/04/14 08:26:12;;;;;;;0.30;0.30;;;23.00;63.80;;;;;;5412436;26;19984;-69
2024/04/14 08:28:38;;;;;;;1.77;0.90;;;23.10;63.60;;;;;;5424732;26;20045;-69
2024/04/14 08:31:04;;;;;;;0.47;0.30;;;23.20;63.40;;;;;;5387799;26;20243;-70
2024/04/14 08:33:30;;;;;;;0.80;0.65;;;23.30;77.20;;;;;;5380122;26;20045;-70
2024/04/14 08:35:55;;;;;;;0.70;0.55;;;23.30;63.30;;;;;;5422147;26;20007;-70
2024/04/14 08:38:21;;;;;;;0.70;0.40;;;23.40;63.00;;;;;;5424616;26;19992;-69
2024/04/14 08:40:53;;;;;;;0.47;0.47;;;23.60;62.70;;;;;;5429047;26;20061;-69
2024/04/14 08:43:20;;;;;;;1.02;0.40;;;23.60;62.50;;;;;;5434126;26;20035;-70
2024/04/14 08:45:47;;;;;;;0.50;0.38;;;23.60;62.40;;;;;;5424208;26;19999;-70
2024/04/14 08:48:18;;;;;;;0.40;0.40;;;23.60;62.50;;;;;;5424258;26;20010;-70
2024/04/14 08:50:47;;;;;;;0.43;0.40;;;23.50;62.70;;;;;;5423509;26;19992;-69
2024/04/14 08:53:17;;;;;;;0.77;0.77;;;23.60;62.70;;;;;;5427923;26;20002;-70
2024/04/14 08:55:46;;;;;;;0.35;0.35;;;23.80;62.30;;;;;;5424026;26;19991;-70
2024/04/14 08:58:15;;;;;;;0.32;0.32;;;24.10;62.00;;;;;;5424385;26;20007;-70
2024/04/14 09:00:44;;;;;;;0.20;0.20;;;24.20;61.50;;;;;;5432059;26;19991;-68
2024/04/14 09:03:10;;;;;;;0.65;0.65;;;24.30;61.30;;;;;;5424297;26;20003;-70
2024/04/14 09:05:45;;;;;;;0.60;0.60;;;24.40;61.20;;;;;;5424434;26;19991;-70
2024/04/14 09:08:14;;;;;;;0.45;0.30;;;24.50;60.80;;;;;;5424383;26;20053;-69
2024/04/14 09:10:40;;;;;;;0.20;0.20;;;24.60;60.80;;;;;;5432823;26;19991;-70
2024/04/14 09:13:07;;;;;;;2.45;0.65;;;24.70;60.40;;;;;;5414788;26;20188;-70
2024/04/14 09:15:40;;;;;;;0.40;0.40;;;24.90;59.50;;;;;;5431543;26;19998;-70
2024/04/14 09:18:06;;;;;;;0.47;0.40;;;25.10;60.00;;;;;;5431785;26;19996;-70
2024/04/14 09:20:32;;;;;;;0.32;0.32;;;25.10;59.80;;;;;;5433839;26;20003;-70
2024/04/14 09:22:58;;;;;;;0.32;0.30;;;25.20;59.70;;;;;;5423443;26;20010;-70
2024/04/14 09:25:24;;;;;;;0.20;0.20;;;25.30;59.50;;;;;;5423819;26;20000;-70
2024/04/14 09:28:03;;;;;;;0.30;0.30;;;25.40;59.40;;;;;;5423276;26;19992;-70
2024/04/14 09:30:29;;;;;;;0.30;0.30;;;25.00;58.60;;;;;;5423702;26;20002;-70
2024/04/14 09:32:57;;;;;;;0.50;0.40;;;25.70;59.00;;;;;;5423358;26;20011;-70
2024/04/14 09:35:26;;;;;;;1.25;0.80;;;25.80;58.80;;;;;;5431388;26;20337;-70
2024/04/14 09:37:52;;;;;;;0.22;0.22;;;25.90;58.50;;;;;;5423076;26;19992;-71
2024/04/14 09:40:18;;;;;;;0.43;0.43;;;25.90;58.30;;;;;;5423083;26;19999;-70
2024/04/14 09:42:45;;;;;;;0.17;0.17;;;26.00;57.90;;;;;;5423156;26;20006;-70
2024/04/14 09:45:11;;;;;;;0.40;0.40;;;26.20;57.80;;;;;;5432754;26;20207;-70
2024/04/14 09:47:37;;;;;;;0.50;0.45;;;26.20;57.50;;;;;;5423396;26;19992;-70
2024/04/14 09:50:08;;;;;;;0.22;0.22;;;26.30;57.40;;;;;;5431715;26;20003;-70
2024/04/14 09:52:35;;;;;;;0.10;0.10;;;26.50;56.90;;;;;;5443904;26;20028;-70
2024/04/14 09:55:04;;;;;;;0.45;0.45;;;26.60;56.70;;;;;;5431927;26;19991;-70
2024/04/14 09:57:31;;;;;;;0.30;0.30;;;26.80;56.40;;;;;;5423204;26;19996;-70
2024/04/14 09:59:56;;;;;;;0.30;0.30;;;26.90;56.30;;;;;;5426715;26;20003;-70
2024/04/14 10:02:30;;;;;;;0.20;0.20;;;27.00;55.90;;;;;;5439829;26;19987;-70
2024/04/14 10:04:58;;;;;;;0.55;0.47;;;27.10;55.50;;;;;;5438302;26;20004;-70
2024/04/14 10:07:24;;;;;;;;;;;27.20;55.40;;;;;;5431030;26;19999;-70
2024/04/14 10:09:50;;;;;;;0.65;0.63;;;27.30;54.70;;;;;;5429886;26;19945;-70
2024/04/14 10:12:19;;;;;;;0.20;0.20;;;27.40;55.00;;;;;;5426511;26;19998;-70
2024/04/14 10:14:47;;;;;;;0.25;0.25;;;27.40;53.80;;;;;;5435211;26;19987;-70
2024/04/14 10:17:12;;;;;;;0.30;0.30;;;27.50;54.70;;;;;;5426447;26;20003;-70
2024/04/14 10:19:38;;;;;;;0.13;0.13;;;27.60;54.30;;;;;;5425861;26;20164;-70
2024/04/14 10:22:08;;;;;;;0.15;0.15;;;27.60;54.30;;;;;;5425907;26;19991;-70
2024/04/14 10:24:55;;;;;;;0.15;0.15;;;27.70;54.10;;;;;;5433005;26;20006;-70
2024/04/14 10:27:22;;;;;;;0.40;0.40;;;27.80;53.30;;;;;;5426262;26;20201;-70
2024/04/14 10:29:59;;;;;;;0.30;0.30;;;27.90;53.20;;;;;;5426232;26;19995;-70
2024/04/14 10:32:25;;;;;;;0.37;0.37;;;27.90;51.40;;;;;;5426460;26;19999;-70
2024/04/14 10:34:51;;;;;;;0.75;0.75;;;28.00;50.80;;;;;;5425943;26;19995;-70
2024/04/14 10:37:28;;;;;;;0.00;0.00;;;28.10;52.00;;;;;;5426500;26;19987;-70
2024/04/14 10:39:55;;;;;;;0.28;0.28;;;28.10;65.40;;;;;;5428131;26;19995;-70
2024/04/14 10:42:24;;;;;;;0.20;0.20;;;28.70;65.50;;;;;;5434571;26;20009;-70
2024/04/14 10:44:50;;;;;;;0.20;0.20;;;28.00;51.20;;;;;;5435407;26;20508;-70
2024/04/14 10:47:23;;;;;;;0.45;0.45;;;28.10;51.20;;;;;;5426668;26;19987;-70
2024/04/14 10:49:50;;;;;;;0.30;0.30;;;28.20;50.60;;;;;;5425946;26;19995;-70
2024/04/14 10:52:17;;;;;;;0.30;0.30;;;28.30;50.50;;;;;;5426207;26;20271;-70
2024/04/14 10:54:46;;;;;;;0.10;0.10;;;28.40;50.20;;;;;;5425358;26;19998;-70
2024/04/14 10:57:24;;;;;;;0.10;0.10;;;28.60;50.00;;;;;;5425964;26;19991;-70
2024/04/14 10:59:49;;;;;;;;;;;28.70;49.60;;;;;;5433406;26;19992;-70
2024/04/14 11:02:15;;;;;;;0.30;0.22;;;28.80;48.50;;;;;;5425892;26;19965;-70
2024/04/14 11:04:42;;;;;;;0.30;0.30;;;29.00;48.90;;;;;;5425636;26;20059;-70
2024/04/14 11:07:09;;;;;;;0.20;0.20;;;29.00;48.30;;;;;;5425736;26;19987;-70
2024/04/14 11:09:36;;;;;;;0.10;0.10;;;29.00;48.10;;;;;;5425764;26;20041;-70
2024/04/14 11:12:03;;;;;;;0.20;0.20;;;29.00;48.10;;;;;;5425683;26;20052;-70
2024/04/14 11:14:37;;;;;;;0.15;0.15;;;29.00;46.70;;;;;;5426825;26;20024;-70
2024/04/14 11:17:11;;;;;;;0.10;0.10;;;29.00;47.50;;;;;;5433478;26;19995;-70
2024/04/14 11:19:37;;;;;;;0.85;0.40;;;29.00;47.10;;;;;;5425062;26;19995;-70
2024/04/14 11:22:02;;;;;;;0.22;0.22;;;29.00;47.40;;;;;;5444911;26;19995;-70
2024/04/14 11:24:28;;;;;;;0.98;0.95;;;29.00;47.30;;;;;;5452065;26;20033;-69
2024/04/14 11:26:54;;;;;;;0.10;0.10;;;29.00;47.10;;;;;;5425033;26;19995;-70
2024/04/14 11:29:19;;;;;;;0.28;0.28;;;29.10;47.10;;;;;;5425491;26;20000;-69
2024/04/14 11:31:45;;;;;;;0.05;0.05;;;29.20;46.90;;;;;;5425319;26;20184;-70
2024/04/14 11:34:12;;;;;;;0.10;0.10;;;29.30;46.80;;;;;;5433558;26;20192;-70
2024/04/14 11:36:40;;;;;;;0.25;0.25;;;29.40;46.50;;;;;;5425452;26;20201;-70
2024/04/14 11:39:06;;;;;;;0.10;0.10;;;29.70;55.30;;;;;;5425150;26;19995;-70
2024/04/14 11:41:32;;;;;;;0.22;0.22;;;29.70;45.80;;;;;;5440203;26;19987;-70
2024/04/14 11:43:59;;;;;;;0.10;0.10;;;29.70;55.10;;;;;;5424998;26;20196;-70
2024/04/14 11:46:28;;;;;;;0.03;0.03;;;29.70;45.40;;;;;;5434847;26;19991;-69
2024/04/14 11:48:53;;;;;;;1.08;0.28;;;30.00;53.80;;;;;;5424726;26;20004;-70
2024/04/14 11:51:19;;;;;;;0.20;0.20;;;29.60;45.10;;;;;;5437261;26;19987;-70
2024/04/14 11:53:45;;;;;;;0.22;0.15;;;29.40;44.50;;;;;;5424993;26;20170;-70
2024/04/14 11:56:11;;;;;;;0.22;0.22;;;29.00;53.40;;;;;;5424826;26;19995;-70
2024/04/14 11:58:37;;;;;;;0.03;0.03;;;29.20;44.00;;;;;;5424766;26;20073;-70
2024/04/14 12:01:03;;;;;;;0.00;0.00;;;29.10;53.40;;;;;;5424754;26;19996;-69
2024/04/14 12:03:30;;;;;;;0.30;0.30;;;29.30;53.20;;;;;;5424773;26;20223;-69
2024/04/14 12:06:02;;;;;;;0.15;0.15;;;29.50;42.90;;;;;;5424383;26;20100;-69
2024/04/14 12:08:31;;;;;;;0.10;0.10;;;29.60;43.70;;;;;;5432923;26;20019;-69
2024/04/14 12:10:56;;;;;;;0.40;0.40;;;29.70;52.70;;;;;;5425362;26;20003;-69
2024/04/14 12:13:29;;;;;;;0.52;0.52;;;29.80;52.60;;;;;;5424570;26;19995;-69
2024/04/14 12:15:56;;;;;;;0.45;0.30;;;29.90;43.40;;;;;;5428354;26;20185;-69
2024/04/14 12:18:22;;;;;;;0.85;0.38;;;29.80;51.70;;;;;;5424665;26;19991;-69
2024/04/14 12:20:48;;;;;;;0.22;0.22;;;29.50;51.70;;;;;;5424377;26;20002;-69
2024/04/14 12:23:14;;;;;;;0.13;0.13;;;29.50;41.90;;;;;;5417747;26;19999;-69
2024/04/14 12:25:40;;;;;;;0.20;0.20;;;29.20;51.90;;;;;;5435041;26;20003;-68
2024/04/14 12:28:09;;;;;;;0.20;0.10;;;29.40;52.30;;;;;;5427442;26;19991;-68
2024/04/14 12:30:39;;;;;;;0.10;0.10;;;29.10;43.00;;;;;;5431985;26;19991;-68
2024/04/14 12:33:05;;;;;;;0.63;0.50;;;29.00;51.90;;;;;;5424551;26;19996;-68
2024/04/14 12:35:37;;;;;;;0.52;0.20;;;29.20;52.00;;;;;;5423528;26;20031;-67
2024/04/14 12:38:03;;;;;;;0.20;0.20;;;29.20;42.70;;;;;;5424083;26;20564;-68
2024/04/14 12:40:30;;;;;;;0.10;0.10;;;29.30;42.80;;;;;;5436204;26;20027;-68
2024/04/14 12:42:57;;;;;;;0.40;0.30;;;29.50;42.70;;;;;;5425142;26;20000;-68
2024/04/14 12:45:23;;;;;;;0.20;0.20;;;29.40;42.60;;;;;;5433889;26;19996;-67
2024/04/14 12:47:49;;;;;;;0.45;0.17;;;29.40;42.70;;;;;;5424090;26;20146;-68
2024/04/14 12:50:20;;;;;;;0.13;0.13;;;29.20;51.20;;;;;;5424283;26;20016;-68
2024/04/14 12:52:46;;;;;;;0.38;0.30;;;29.50;52.20;;;;;;5424177;26;20002;-68
2024/04/14 12:55:13;;;;;;;0.43;0.20;;;29.50;42.30;;;;;;5424180;26;20095;-68